Time;durP1;ratioP1;P1;durP2;ratioP2;P2;SDS_P1;SDS_P2;PMS_P1;PMS_P2;Temp;Humidity;BMP_temperature;BMP_pressure;BME280_temperature;BME280_humidity;BME280_pressure;Samples;Min_cycle;Max_cycle;Signal;HPM_P1;HPM_P2
2024/01/17 00:00:08;;;;;;;1.60;0.80;;;4.30;99.20;;;;;;5041637;28;20029;-70
2024/01/17 00:02:34;;;;;;;1.90;0.85;;;4.40;98.80;;;;;;5034697;28;20160;-72
2024/01/17 00:04:59;;;;;;;2.38;1.02;;;4.30;98.80;;;;;;5039514;28;20036;-72
2024/01/17 00:07:25;;;;;;;7.45;1.08;;;4.30;99.00;;;;;;5040021;28;20032;-71
2024/01/17 00:09:51;;;;;;;0.47;0.47;;;4.30;98.40;;;;;;5035058;28;20037;-71
2024/01/17 00:12:16;;;;;;;1.60;1.17;;;4.30;98.10;;;;;;5038939;28;20119;-72
2024/01/17 00:14:42;;;;;;;2.97;0.98;;;4.20;98.50;;;;;;5040746;28;20531;-71
2024/01/17 00:17:08;;;;;;;2.55;0.90;;;4.10;98.60;;;;;;5036631;28;20393;-72
2024/01/17 00:19:35;;;;;;;0.93;0.88;;;4.10;98.60;;;;;;5042698;28;20028;-71
2024/01/17 00:22:01;;;;;;;0.98;0.88;;;4.10;98.90;;;;;;5038650;28;20536;-72
2024/01/17 00:24:27;;;;;;;1.27;1.17;;;4.20;98.50;;;;;;5040069;28;20505;-70
2024/01/17 00:26:52;;;;;;;3.78;0.55;;;4.20;98.10;;;;;;5041854;28;21193;-71
2024/01/17 00:29:18;;;;;;;0.98;0.47;;;4.10;98.20;;;;;;5038912;28;20040;-71
2024/01/17 00:31:44;;;;;;;0.70;0.68;;;4.30;97.80;;;;;;5043063;28;20029;-72
2024/01/17 00:34:10;;;;;;;0.73;0.73;;;4.30;97.40;;;;;;5040985;28;20077;-70
2024/01/17 00:36:35;;;;;;;5.28;0.50;;;4.20;97.50;;;;;;5030631;28;20473;-71
2024/01/17 00:39:01;;;;;;;2.42;1.10;;;4.10;97.80;;;;;;5038287;28;20647;-71
2024/01/17 00:41:27;;;;;;;1.88;0.68;;;4.00;98.20;;;;;;5036220;28;20165;-72
2024/01/17 00:43:52;;;;;;;0.47;0.47;;;4.10;98.10;;;;;;5032244;28;20148;-71
2024/01/17 00:46:18;;;;;;;1.05;0.75;;;4.10;97.90;;;;;;5036733;28;20029;-71
2024/01/17 00:48:44;;;;;;;1.17;0.75;;;4.10;98.00;;;;;;5035412;28;20591;-71
2024/01/17 00:51:09;;;;;;;2.50;1.15;;;4.00;97.90;;;;;;5035901;28;20033;-71
2024/01/17 00:53:35;;;;;;;1.05;0.65;;;4.00;98.00;;;;;;5037860;28;20106;-72
2024/01/17 00:56:01;;;;;;;3.08;0.70;;;3.90;98.10;;;;;;5038146;28;20029;-71
2024/01/17 00:58:28;;;;;;;1.70;0.52;;;3.90;97.90;;;;;;5040318;28;20095;-70
2024/01/17 01:00:54;;;;;;;0.93;0.93;;;3.90;98.20;;;;;;5042145;28;20028;-72
2024/01/17 01:03:19;;;;;;;5.38;0.90;;;4.00;97.90;;;;;;5039233;28;20249;-72
2024/01/17 01:05:46;;;;;;;1.73;1.08;;;4.00;97.80;;;;;;5042697;28;20052;-71
2024/01/17 01:08:12;;;;;;;1.55;1.45;;;4.00;97.50;;;;;;5042998;28;20036;-71
2024/01/17 01:10:38;;;;;;;0.65;0.65;;;4.00;97.40;;;;;;5034642;28;20496;-72
2024/01/17 01:13:04;;;;;;;1.02;0.70;;;4.00;97.10;;;;;;5040112;28;20300;-72
2024/01/17 01:15:29;;;;;;;9.15;0.90;;;3.90;97.60;;;;;;5033720;28;20041;-72
2024/01/17 01:17:55;;;;;;;0.57;0.50;;;3.80;98.00;;;;;;5040004;28;20031;-71
2024/01/17 01:20:20;;;;;;;0.95;0.90;;;3.80;97.90;;;;;;5040481;28;20425;-73
2024/01/17 01:22:46;;;;;;;4.70;0.85;;;3.90;97.60;;;;;;5032498;28;20131;-71
2024/01/17 01:25:12;;;;;;;1.77;1.27;;;3.90;97.60;;;;;;5034968;28;20154;-72
2024/01/17 01:27:37;;;;;;;0.68;0.68;;;3.90;97.90;;;;;;5039118;28;20067;-72
2024/01/17 01:30:03;;;;;;;0.40;0.40;;;4.00;97.60;;;;;;5036669;28;20082;-72
2024/01/17 01:32:29;;;;;;;0.50;0.50;;;4.00;97.20;;;;;;5040626;28;20614;-72
2024/01/17 01:34:55;;;;;;;1.08;0.60;;;4.00;97.20;;;;;;5038294;28;20041;-71
2024/01/17 01:37:20;;;;;;;0.77;0.60;;;3.90;97.30;;;;;;5033722;28;20023;-71
2024/01/17 01:39:46;;;;;;;0.65;0.63;;;3.80;97.70;;;;;;5039156;28;20128;-71
2024/01/17 01:42:13;;;;;;;0.77;0.68;;;3.80;97.70;;;;;;5036014;28;20381;-71
2024/01/17 01:44:38;;;;;;;0.90;0.60;;;3.80;97.60;;;;;;5034897;28;20860;-72
2024/01/17 01:47:07;;;;;;;0.95;0.90;;;3.80;97.60;;;;;;5017935;28;21192;-72
2024/01/17 01:49:32;;;;;;;0.75;0.50;;;3.90;98.00;;;;;;5034220;28;20119;-73
2024/01/17 01:51:59;;;;;;;1.05;0.80;;;3.80;97.90;;;;;;5035189;28;20032;-72
2024/01/17 01:54:26;;;;;;;0.98;0.80;;;3.90;97.70;;;;;;5035302;28;20129;-71
2024/01/17 01:56:54;;;;;;;1.02;0.82;;;3.80;97.40;;;;;;5034634;28;20033;-72
2024/01/17 01:59:21;;;;;;;0.50;0.40;;;3.80;97.40;;;;;;5040154;28;20510;-71
2024/01/17 02:01:47;;;;;;;1.92;0.85;;;3.80;97.50;;;;;;5038000;28;20035;-72
2024/01/17 02:04:15;;;;;;;1.40;0.95;;;3.90;97.50;;;;;;5050428;28;20045;-71
2024/01/17 02:06:43;;;;;;;0.40;0.40;;;3.80;97.30;;;;;;5060986;28;20037;-71
2024/01/17 02:09:09;;;;;;;0.57;0.57;;;3.80;97.50;;;;;;5036546;28;20607;-72
2024/01/17 02:11:36;;;;;;;0.50;0.50;;;3.90;97.30;;;;;;5037336;28;20071;-71
2024/01/17 02:14:01;;;;;;;4.38;0.95;;;3.90;97.20;;;;;;5038286;28;20390;-72
2024/01/17 02:16:28;;;;;;;0.65;0.65;;;3.90;97.20;;;;;;5030909;28;20094;-72
2024/01/17 02:18:54;;;;;;;0.57;0.55;;;3.90;97.30;;;;;;5037547;28;20039;-73
2024/01/17 02:21:20;;;;;;;4.50;1.95;;;3.80;97.40;;;;;;5035478;28;20075;-72
2024/01/17 02:23:53;;;;;;;0.73;0.73;;;3.70;97.80;;;;;;5031057;28;20072;-72
2024/01/17 02:26:19;;;;;;;0.43;0.43;;;3.60;98.20;;;;;;5039132;28;20237;-72
2024/01/17 02:28:45;;;;;;;2.22;1.02;;;3.50;98.60;;;;;;5037858;28;20485;-72
2024/01/17 02:31:12;;;;;;;1.70;0.47;;;3.40;99.00;;;;;;5033747;28;20029;-72
2024/01/17 02:33:37;;;;;;;0.60;0.60;;;3.40;99.20;;;;;;5042004;28;20037;-70
2024/01/17 02:36:03;;;;;;;5.63;0.47;;;3.30;99.30;;;;;;5036342;28;20382;-71
2024/01/17 02:38:29;;;;;;;0.52;0.52;;;3.30;99.50;;;;;;5038342;28;20044;-72
2024/01/17 02:40:55;;;;;;;4.10;2.05;;;3.20;99.40;;;;;;5036827;28;20021;-71
2024/01/17 02:43:20;;;;;;;2.38;1.13;;;3.30;99.30;;;;;;5036677;28;20106;-70
2024/01/17 02:45:46;;;;;;;11.75;1.00;;;3.30;99.20;;;;;;5038417;28;20041;-72
2024/01/17 02:48:12;;;;;;;1.00;0.45;;;3.30;99.20;;;;;;5035316;28;20082;-72
2024/01/17 02:50:39;;;;;;;2.40;0.73;;;3.20;99.30;;;;;;5031805;28;20033;-71
2024/01/17 02:53:06;;;;;;;0.70;0.43;;;3.10;99.40;;;;;;5037189;28;20076;-71
2024/01/17 02:55:32;;;;;;;0.50;0.50;;;3.10;99.60;;;;;;5038649;28;21516;-71
2024/01/17 02:58:00;;;;;;;0.93;0.60;;;3.10;99.60;;;;;;5036345;28;20025;-72
2024/01/17 03:00:26;;;;;;;1.25;1.25;;;3.10;99.80;;;;;;5036768;28;20083;-72
2024/01/17 03:02:51;;;;;;;0.88;0.50;;;3.00;99.90;;;;;;5028647;28;20111;-72
2024/01/17 03:05:17;;;;;;;1.08;0.98;;;2.90;99.90;;;;;;5035131;28;20126;-71
2024/01/17 03:07:43;;;;;;;0.35;0.35;;;2.90;99.90;;;;;;5038302;28;20033;-70
2024/01/17 03:10:11;;;;;;;1.33;1.05;;;2.80;99.90;;;;;;5031706;28;20044;-71
2024/01/17 03:12:38;;;;;;;1.90;0.68;;;2.80;99.90;;;;;;5036816;28;20049;-71
2024/01/17 03:15:04;;;;;;;1.08;0.95;;;2.80;99.90;;;;;;5037862;28;20476;-71
2024/01/17 03:17:30;;;;;;;0.73;0.65;;;2.80;99.90;;;;;;5031638;28;20033;-72
2024/01/17 03:19:56;;;;;;;0.63;0.50;;;2.80;99.90;;;;;;5036509;28;20401;-71
2024/01/17 03:22:21;;;;;;;0.82;0.82;;;2.80;99.90;;;;;;5033847;28;20045;-71
2024/01/17 03:24:47;;;;;;;0.75;0.75;;;2.80;99.90;;;;;;5034248;28;20039;-72
2024/01/17 03:27:13;;;;;;;0.10;0.10;;;2.80;99.90;;;;;;5036549;28;20068;-71
2024/01/17 03:29:39;;;;;;;0.70;0.70;;;2.70;99.90;;;;;;5035390;28;20489;-72
2024/01/17 03:32:05;;;;;;;1.30;1.20;;;2.70;99.90;;;;;;5035270;28;20036;-70
2024/01/17 03:34:30;;;;;;;0.73;0.73;;;2.70;99.90;;;;;;5039198;28;20033;-72
2024/01/17 03:36:56;;;;;;;0.77;0.50;;;2.60;99.90;;;;;;5036366;28;20044;-71
2024/01/17 03:39:21;;;;;;;0.70;0.70;;;2.60;99.90;;;;;;5041463;28;20088;-72
2024/01/17 03:41:47;;;;;;;1.70;1.13;;;2.60;99.90;;;;;;5039575;28;20121;-71
2024/01/17 03:44:13;;;;;;;1.20;0.75;;;2.60;99.90;;;;;;5039892;28;20436;-72
2024/01/17 03:46:38;;;;;;;0.47;0.47;;;2.70;99.90;;;;;;5043631;28;20063;-71
2024/01/17 03:49:04;;;;;;;0.55;0.55;;;2.70;99.90;;;;;;5041079;28;20036;-71
2024/01/17 03:51:30;;;;;;;2.17;0.85;;;2.60;99.90;;;;;;5031447;28;20033;-71
2024/01/17 03:53:56;;;;;;;2.00;1.88;;;2.60;99.90;;;;;;5039638;28;20092;-73
2024/01/17 03:56:23;;;;;;;2.20;2.05;;;2.60;99.90;;;;;;5038836;28;20041;-71
2024/01/17 03:58:51;;;;;;;2.63;1.40;;;2.50;99.90;;;;;;5038823;28;20723;-72
2024/01/17 04:01:17;;;;;;;2.45;1.23;;;2.50;99.90;;;;;;5025069;28;20119;-71
2024/01/17 04:03:43;;;;;;;2.30;1.42;;;2.50;99.90;;;;;;5040073;28;20413;-71
2024/01/17 04:06:09;;;;;;;3.08;2.45;;;2.50;99.90;;;;;;5045053;28;20050;-71
2024/01/17 04:08:35;;;;;;;3.88;2.40;;;2.50;99.90;;;;;;5046879;28;20087;-71
2024/01/17 04:11:01;;;;;;;2.22;1.85;;;2.50;99.90;;;;;;5038270;28;20045;-72
2024/01/17 04:13:26;;;;;;;0.65;0.65;;;2.40;99.90;;;;;;5023236;28;20159;-71
2024/01/17 04:15:52;;;;;;;1.63;0.77;;;2.40;99.90;;;;;;5040233;28;20035;-72
2024/01/17 04:18:17;;;;;;;2.15;0.65;;;2.30;99.90;;;;;;5037811;28;21675;-71
2024/01/17 04:20:43;;;;;;;0.68;0.57;;;2.40;99.90;;;;;;5036863;28;20033;-72
2024/01/17 04:23:09;;;;;;;1.27;1.25;;;2.30;99.90;;;;;;5034377;28;20064;-71
2024/01/17 04:25:35;;;;;;;0.95;0.32;;;2.40;99.90;;;;;;5040004;28;20051;-71
2024/01/17 04:28:05;;;;;;;0.75;0.70;;;2.40;99.90;;;;;;5040313;28;20041;-72
2024/01/17 04:30:31;;;;;;;0.63;0.63;;;2.40;99.90;;;;;;5036071;28;20265;-72
2024/01/17 04:32:57;;;;;;;1.48;0.68;;;2.40;99.90;;;;;;5037172;28;20032;-73
2024/01/17 04:35:23;;;;;;;1.13;0.57;;;2.40;99.90;;;;;;5040908;28;20057;-72
2024/01/17 04:37:48;;;;;;;1.70;0.85;;;2.40;99.90;;;;;;5035709;28;20033;-71
2024/01/17 04:40:15;;;;;;;0.75;0.60;;;2.40;99.90;;;;;;5040327;28;20029;-72
2024/01/17 04:42:41;;;;;;;0.30;0.30;;;2.40;99.90;;;;;;5035756;28;20035;-70
2024/01/17 04:45:07;;;;;;;2.10;0.88;;;2.40;99.90;;;;;;5038847;28;20033;-71
2024/01/17 04:47:33;;;;;;;0.57;0.57;;;2.40;99.90;;;;;;5040515;28;20053;-71
2024/01/17 04:49:59;;;;;;;0.93;0.63;;;2.40;99.90;;;;;;5038160;28;20752;-70
2024/01/17 04:52:24;;;;;;;1.58;0.90;;;2.40;99.90;;;;;;5037706;28;20033;-71
2024/01/17 04:54:50;;;;;;;0.73;0.73;;;2.40;99.90;;;;;;5041639;28;20123;-71
2024/01/17 04:57:16;;;;;;;1.25;0.50;;;2.40;99.90;;;;;;5040008;28;20031;-72
2024/01/17 04:59:43;;;;;;;0.65;0.65;;;2.40;99.90;;;;;;5064905;28;20726;-71
2024/01/17 05:02:09;;;;;;;0.45;0.45;;;2.40;99.90;;;;;;5058162;28;20115;-70
2024/01/17 05:04:35;;;;;;;1.17;0.75;;;2.40;99.90;;;;;;5025541;28;20112;-71
2024/01/17 05:07:01;;;;;;;3.83;0.70;;;2.40;99.90;;;;;;5038017;28;20040;-70
2024/01/17 05:09:28;;;;;;;1.23;0.88;;;2.40;99.90;;;;;;5040798;28;20060;-72
2024/01/17 05:11:56;;;;;;;1.38;1.27;;;2.40;99.90;;;;;;5036158;28;20132;-71
2024/01/17 05:14:21;;;;;;;0.80;0.80;;;2.40;99.90;;;;;;5030145;28;20033;-70
2024/01/17 05:16:47;;;;;;;0.57;0.57;;;2.50;99.90;;;;;;5039580;28;20397;-72
2024/01/17 05:19:12;;;;;;;3.80;0.95;;;2.40;99.90;;;;;;5039769;28;20055;-70
2024/01/17 05:21:38;;;;;;;1.58;1.13;;;2.30;99.90;;;;;;5037140;28;20032;-71
2024/01/17 05:24:04;;;;;;;1.20;1.10;;;2.40;99.90;;;;;;5033699;28;20053;-71
2024/01/17 05:26:29;;;;;;;1.05;0.95;;;2.40;99.90;;;;;;5024121;28;20202;-72
2024/01/17 05:28:55;;;;;;;2.17;0.77;;;2.40;99.90;;;;;;5039848;28;20033;-71
2024/01/17 05:31:20;;;;;;;0.43;0.43;;;2.40;99.90;;;;;;5037175;28;20025;-70
2024/01/17 05:33:46;;;;;;;7.63;1.23;;;2.40;99.90;;;;;;5042109;28;20620;-71
2024/01/17 05:36:12;;;;;;;4.55;1.15;;;2.30;99.90;;;;;;5041995;28;20029;-71
2024/01/17 05:38:37;;;;;;;16.70;1.25;;;2.30;99.90;;;;;;5035589;28;20036;-71
2024/01/17 05:41:03;;;;;;;6.50;0.70;;;2.40;99.90;;;;;;5039669;28;20025;-71
2024/01/17 05:43:30;;;;;;;0.80;0.38;;;2.40;99.90;;;;;;5037275;28;20405;-71
2024/01/17 05:45:57;;;;;;;1.75;0.77;;;2.40;99.90;;;;;;5039264;28;20033;-71
2024/01/17 05:48:24;;;;;;;0.82;0.68;;;2.40;99.90;;;;;;5042476;28;20029;-71
2024/01/17 05:50:50;;;;;;;0.45;0.38;;;2.40;99.90;;;;;;5034908;28;20043;-71
2024/01/17 05:53:15;;;;;;;1.77;0.68;;;2.40;99.90;;;;;;5040552;28;20044;-71
2024/01/17 05:55:42;;;;;;;1.00;1.00;;;2.30;99.90;;;;;;5043194;28;20041;-71
2024/01/17 05:58:09;;;;;;;0.73;0.55;;;2.30;99.90;;;;;;5035242;28;20033;-72
2024/01/17 06:00:35;;;;;;;0.65;0.65;;;2.30;99.90;;;;;;5039317;28;20033;-72
2024/01/17 06:03:00;;;;;;;0.60;0.60;;;2.40;99.90;;;;;;5040979;28;20029;-71
2024/01/17 06:05:26;;;;;;;6.05;0.70;;;2.30;99.90;;;;;;5035035;28;20429;-71
2024/01/17 06:07:52;;;;;;;1.17;0.55;;;2.40;99.90;;;;;;5041412;28;20021;-71
2024/01/17 06:10:18;;;;;;;1.10;1.02;;;2.40;99.90;;;;;;5036820;28;20067;-71
2024/01/17 06:12:43;;;;;;;1.90;1.63;;;2.40;99.90;;;;;;5036014;28;20033;-71
2024/01/17 06:15:11;;;;;;;1.65;0.88;;;2.40;99.90;;;;;;5039410;28;20048;-72
2024/01/17 06:17:37;;;;;;;4.22;1.05;;;2.30;99.90;;;;;;5034959;28;20524;-71
2024/01/17 06:20:04;;;;;;;1.45;1.17;;;2.40;99.90;;;;;;5027692;28;20116;-71
2024/01/17 06:22:29;;;;;;;2.53;1.20;;;2.40;99.90;;;;;;5036567;28;20037;-72
2024/01/17 06:24:55;;;;;;;1.30;0.90;;;2.40;99.90;;;;;;5031057;28;20396;-71
2024/01/17 06:27:22;;;;;;;1.17;1.08;;;2.50;99.90;;;;;;5029755;28;20040;-70
2024/01/17 06:29:47;;;;;;;1.35;1.00;;;2.50;99.90;;;;;;5030811;28;20489;-71
2024/01/17 06:32:13;;;;;;;0.88;0.70;;;2.50;99.90;;;;;;5031335;28;20047;-71
2024/01/17 06:34:39;;;;;;;2.05;1.35;;;2.50;99.90;;;;;;5039539;28;20037;-72
2024/01/17 06:37:05;;;;;;;0.77;0.77;;;2.50;99.90;;;;;;5034956;28;20028;-72
2024/01/17 06:39:33;;;;;;;0.70;0.70;;;2.50;99.90;;;;;;5036205;28;20086;-71
2024/01/17 06:41:59;;;;;;;1.27;1.17;;;2.50;99.90;;;;;;5037986;28;20136;-71
2024/01/17 06:44:26;;;;;;;0.75;0.52;;;2.50;99.90;;;;;;5037361;28;20033;-70
2024/01/17 06:46:52;;;;;;;0.88;0.70;;;2.50;99.90;;;;;;5036355;28;20043;-71
2024/01/17 06:49:17;;;;;;;2.72;1.15;;;2.50;99.90;;;;;;5038698;28;20044;-71
2024/01/17 06:51:43;;;;;;;1.85;0.65;;;2.40;99.90;;;;;;5031152;28;20053;-71
2024/01/17 06:54:09;;;;;;;1.92;0.90;;;2.40;99.90;;;;;;5041029;28;20037;-71
2024/01/17 06:56:36;;;;;;;1.10;0.60;;;2.40;99.90;;;;;;5039006;28;20037;-70
2024/01/17 06:59:02;;;;;;;1.92;1.05;;;2.40;99.90;;;;;;5035981;28;20036;-72
2024/01/17 07:01:28;;;;;;;1.17;1.08;;;2.50;99.90;;;;;;5038940;28;20037;-72
2024/01/17 07:03:54;;;;;;;0.43;0.43;;;2.50;99.90;;;;;;5032642;28;20120;-71
2024/01/17 07:06:20;;;;;;;0.77;0.70;;;2.40;99.90;;;;;;5033833;28;20039;-72
2024/01/17 07:08:45;;;;;;;1.02;0.95;;;2.50;99.90;;;;;;5040875;28;20032;-70
2024/01/17 07:11:11;;;;;;;1.25;0.70;;;2.50;99.90;;;;;;5029388;28;20036;-71
2024/01/17 07:13:39;;;;;;;1.77;1.10;;;2.40;99.90;;;;;;5040319;28;20021;-71
2024/01/17 07:16:05;;;;;;;2.05;1.40;;;2.50;99.90;;;;;;5045248;28;20121;-73
2024/01/17 07:18:31;;;;;;;0.70;0.70;;;2.50;99.90;;;;;;5036940;28;20040;-71
2024/01/17 07:20:57;;;;;;;1.55;1.45;;;2.40;99.90;;;;;;5037780;28;20071;-71
2024/01/17 07:23:22;;;;;;;1.27;1.17;;;2.40;99.90;;;;;;5039401;28;20061;-71
2024/01/17 07:25:48;;;;;;;2.45;0.55;;;2.40;99.90;;;;;;5036736;28;20033;-71
2024/01/17 07:28:14;;;;;;;8.90;1.23;;;2.40;99.90;;;;;;5040406;28;20063;-71
2024/01/17 07:30:41;;;;;;;2.20;1.10;;;2.40;99.90;;;;;;5036858;28;20041;-71
2024/01/17 07:33:07;;;;;;;1.40;1.00;;;2.40;99.90;;;;;;5039541;28;20144;-71
2024/01/17 07:35:33;;;;;;;4.53;1.10;;;2.40;99.90;;;;;;5041639;28;20031;-71
2024/01/17 07:37:59;;;;;;;1.08;1.05;;;2.40;99.90;;;;;;5039586;28;20693;-71
2024/01/17 07:40:25;;;;;;;0.93;0.93;;;2.40;99.90;;;;;;5043346;28;20176;-71
2024/01/17 07:42:51;;;;;;;2.08;1.77;;;2.40;99.90;;;;;;5040408;28;20021;-71
2024/01/17 07:45:17;;;;;;;1.95;1.42;;;2.40;99.90;;;;;;5034881;28;20033;-71
2024/01/17 07:47:43;;;;;;;2.35;1.60;;;2.40;99.90;;;;;;5041190;28;20090;-71
2024/01/17 07:50:09;;;;;;;1.98;1.30;;;2.40;99.90;;;;;;5037590;28;20037;-71
2024/01/17 07:52:35;;;;;;;10.93;2.30;;;2.50;99.90;;;;;;5033115;28;20366;-71
2024/01/17 07:55:02;;;;;;;4.60;2.28;;;2.50;99.90;;;;;;5034592;28;20047;-71
2024/01/17 07:57:27;;;;;;;2.10;1.45;;;2.50;99.90;;;;;;5035816;28;20033;-72
2024/01/17 07:59:53;;;;;;;1.73;1.63;;;2.50;99.90;;;;;;5033905;28;20512;-70
2024/01/17 08:02:18;;;;;;;2.03;1.83;;;2.50;99.90;;;;;;5037002;28;20061;-71
2024/01/17 08:04:45;;;;;;;2.25;1.00;;;2.50;99.90;;;;;;5031741;28;20028;-72
2024/01/17 08:07:11;;;;;;;1.33;1.23;;;2.50;99.90;;;;;;5013019;28;20048;-71
2024/01/17 08:09:36;;;;;;;6.03;2.42;;;2.50;99.90;;;;;;5030759;28;20037;-72
2024/01/17 08:12:03;;;;;;;1.83;1.05;;;2.60;99.90;;;;;;5027792;28;20116;-71
2024/01/17 08:14:29;;;;;;;3.35;0.85;;;2.60;99.90;;;;;;5036300;28;20037;-71
2024/01/17 08:16:55;;;;;;;12.85;1.73;;;2.60;99.90;;;;;;5032894;28;20025;-72
2024/01/17 08:19:21;;;;;;;1.08;1.08;;;2.60;99.90;;;;;;5033627;28;20037;-73
2024/01/17 08:21:48;;;;;;;1.27;1.25;;;2.60;99.90;;;;;;5033461;28;20033;-71
2024/01/17 08:24:14;;;;;;;1.15;1.00;;;2.50;99.90;;;;;;5032388;28;20535;-70
2024/01/17 08:26:40;;;;;;;4.93;1.75;;;2.60;99.90;;;;;;5031430;28;20041;-70
2024/01/17 08:29:05;;;;;;;3.97;1.20;;;2.60;99.90;;;;;;5035745;28;20047;-73
2024/01/17 08:31:31;;;;;;;4.15;1.88;;;2.60;99.90;;;;;;5044045;28;20151;-73
2024/01/17 08:33:58;;;;;;;1.42;1.15;;;2.70;99.90;;;;;;5055256;28;20071;-73
2024/01/17 08:36:31;;;;;;;2.45;1.40;;;2.70;99.90;;;;;;5039333;28;20107;-73
2024/01/17 08:38:58;;;;;;;2.42;1.55;;;2.80;99.90;;;;;;5033143;28;20032;-72
2024/01/17 08:41:24;;;;;;;3.80;1.52;;;2.70;99.90;;;;;;5034948;28;20745;-75
2024/01/17 08:43:49;;;;;;;1.33;1.25;;;2.70;99.90;;;;;;5036624;28;20040;-70
2024/01/17 08:46:15;;;;;;;2.83;1.70;;;2.70;99.90;;;;;;5031232;28;21539;-71
2024/01/17 08:48:41;;;;;;;0.88;0.68;;;2.70;99.90;;;;;;5034105;28;20029;-74
2024/01/17 08:51:08;;;;;;;12.63;1.50;;;2.80;99.90;;;;;;5028750;28;20045;-72
2024/01/17 08:53:35;;;;;;;2.22;2.05;;;2.80;99.90;;;;;;5034022;28;20386;-73
2024/01/17 08:56:04;;;;;;;1.60;1.50;;;2.80;99.90;;;;;;5036102;28;20068;-71
2024/01/17 08:58:32;;;;;;;2.38;1.23;;;2.80;99.90;;;;;;5025236;28;20037;-71
2024/01/17 09:00:57;;;;;;;4.60;1.27;;;2.80;99.90;;;;;;5033976;28;20036;-72
2024/01/17 09:03:23;;;;;;;7.38;1.80;;;2.80;99.90;;;;;;5038506;28;20033;-71
2024/01/17 09:05:50;;;;;;;3.03;2.00;;;2.90;99.90;;;;;;5024023;28;20033;-73
2024/01/17 09:08:16;;;;;;;2.70;1.35;;;2.90;99.90;;;;;;5034890;28;20045;-71
2024/01/17 09:10:42;;;;;;;1.27;1.17;;;3.00;99.90;;;;;;5034187;28;20497;-72
2024/01/17 09:13:09;;;;;;;2.00;1.20;;;2.90;99.90;;;;;;5025607;28;20120;-73
2024/01/17 09:15:35;;;;;;;2.35;1.70;;;2.90;99.90;;;;;;5030946;28;20036;-72
2024/01/17 09:18:01;;;;;;;1.35;1.30;;;2.90;99.90;;;;;;5021374;28;20052;-73
2024/01/17 09:20:27;;;;;;;2.35;1.77;;;3.00;99.90;;;;;;5018302;28;20036;-72
2024/01/17 09:22:53;;;;;;;2.78;2.30;;;2.90;99.90;;;;;;5036933;28;20041;-72
2024/01/17 09:25:19;;;;;;;4.93;3.40;;;2.90;99.90;;;;;;5023043;28;20044;-74
2024/01/17 09:27:44;;;;;;;2.08;1.77;;;2.90;99.90;;;;;;5023343;28;20041;-73
2024/01/17 09:30:11;;;;;;;8.65;3.10;;;2.80;99.90;;;;;;5026703;28;20029;-71
2024/01/17 09:32:37;;;;;;;2.75;1.13;;;2.90;99.90;;;;;;5005315;28;20052;-71
2024/01/17 09:35:04;;;;;;;3.67;2.35;;;2.90;99.90;;;;;;5001960;28;20041;-71
2024/01/17 09:37:29;;;;;;;2.67;1.83;;;2.80;99.90;;;;;;5020657;28;20037;-72
2024/01/17 09:39:55;;;;;;;2.33;1.40;;;2.80;99.90;;;;;;5028326;28;20033;-71
2024/01/17 09:42:21;;;;;;;3.15;2.03;;;2.90;99.90;;;;;;5030581;28;20451;-73
2024/01/17 09:44:47;;;;;;;1.33;1.13;;;2.90;99.90;;;;;;5031081;28;20029;-70
2024/01/17 09:47:15;;;;;;;1.85;1.65;;;2.90;99.90;;;;;;5033386;28;20040;-73
2024/01/17 09:49:41;;;;;;;1.27;1.17;;;2.90;99.90;;;;;;5031146;28;20045;-72
2024/01/17 09:52:07;;;;;;;3.60;1.73;;;2.80;99.90;;;;;;5027401;28;20604;-74
2024/01/17 09:54:45;;;;;;;1.65;1.38;;;2.80;99.90;;;;;;5087582;27;20482;-71
2024/01/17 09:57:20;;;;;;;1.23;1.10;;;2.80;99.90;;;;;;5058402;28;20094;-74
2024/01/17 09:59:50;;;;;;;2.63;1.77;;;2.90;99.90;;;;;;5048258;28;20111;-71
2024/01/17 10:02:18;;;;;;;3.30;2.45;;;2.90;99.90;;;;;;5055578;28;20036;-73
2024/01/17 10:04:46;;;;;;;2.60;2.10;;;2.90;99.90;;;;;;5050910;28;20093;-71
2024/01/17 10:07:12;;;;;;;1.65;1.55;;;3.00;99.90;;;;;;5052211;28;20061;-73
2024/01/17 10:09:39;;;;;;;14.10;2.83;;;3.00;99.90;;;;;;5054375;28;20037;-70
2024/01/17 10:12:05;;;;;;;6.82;1.88;;;3.00;99.90;;;;;;5050191;28;20044;-73
2024/01/17 10:14:31;;;;;;;2.70;2.50;;;3.00;99.90;;;;;;5046942;28;20040;-73
2024/01/17 10:16:57;;;;;;;1.23;1.02;;;3.00;99.90;;;;;;5050656;28;20028;-73
2024/01/17 10:19:25;;;;;;;5.13;2.05;;;3.10;99.90;;;;;;5048636;28;20527;-72
2024/01/17 10:21:51;;;;;;;2.80;2.25;;;3.20;99.90;;;;;;5053769;28;20743;-72
2024/01/17 10:24:17;;;;;;;2.28;2.08;;;3.30;99.90;;;;;;5052564;28;20036;-72
2024/01/17 10:26:44;;;;;;;3.15;1.45;;;3.30;99.90;;;;;;5049298;28;20033;-71
2024/01/17 10:29:11;;;;;;;5.10;2.22;;;3.30;99.90;;;;;;5045648;28;20040;-73
2024/01/17 10:31:39;;;;;;;2.63;1.67;;;3.40;99.90;;;;;;5041912;28;20044;-72
2024/01/17 10:34:05;;;;;;;1.80;1.70;;;3.40;99.90;;;;;;5046737;28;20036;-72
2024/01/17 10:36:30;;;;;;;2.13;1.90;;;3.40;99.90;;;;;;5053308;28;20551;-73
2024/01/17 10:39:04;;;;;;;2.92;2.08;;;3.60;99.90;;;;;;5046320;28;20446;-71
2024/01/17 10:41:31;;;;;;;2.20;1.63;;;3.70;99.90;;;;;;5050219;28;20033;-70
2024/01/17 10:43:57;;;;;;;4.30;1.60;;;3.60;99.90;;;;;;5045235;28;20032;-72
2024/01/17 10:46:24;;;;;;;6.90;3.17;;;3.60;99.90;;;;;;5045493;28;20138;-71
2024/01/17 10:48:50;;;;;;;2.95;1.70;;;3.70;99.90;;;;;;5046260;28;20646;-71
2024/01/17 10:51:20;;;;;;;3.13;1.98;;;3.70;99.90;;;;;;5047186;28;20140;-71
2024/01/17 10:53:49;;;;;;;5.25;2.20;;;3.70;99.90;;;;;;5048626;28;20673;-72
2024/01/17 10:56:20;;;;;;;2.50;2.05;;;3.70;99.90;;;;;;5050973;28;20044;-73
2024/01/17 10:58:49;;;;;;;1.35;1.23;;;3.70;99.90;;;;;;5048116;28;21040;-73
2024/01/17 11:01:24;;;;;;;3.05;2.67;;;3.80;99.90;;;;;;5053470;28;20116;-71
2024/01/17 11:03:53;;;;;;;1.45;1.33;;;3.90;99.90;;;;;;5048104;28;20037;-71
2024/01/17 11:06:19;;;;;;;;;;;3.80;99.60;;;;;;5031162;28;20040;-72
2024/01/17 11:08:46;;;;;;;1.17;1.00;;;3.80;99.90;;;;;;5026109;28;19924;-74
2024/01/17 11:11:13;;;;;;;3.05;1.80;;;3.70;99.80;;;;;;5037896;28;20041;-71
2024/01/17 11:13:42;;;;;;;1.50;1.23;;;3.80;99.90;;;;;;5035010;28;20060;-72
2024/01/17 11:16:09;;;;;;;8.68;2.13;;;3.90;99.90;;;;;;5036668;28;20033;-71
2024/01/17 11:18:36;;;;;;;4.03;2.22;;;3.80;99.70;;;;;;5023233;28;20110;-70
2024/01/17 11:21:03;;;;;;;3.88;2.60;;;3.80;99.80;;;;;;5037756;28;20025;-71
2024/01/17 11:23:39;;;;;;;2.33;2.08;;;3.80;99.90;;;;;;5040018;28;20520;-72
2024/01/17 11:26:15;;;;;;;2.72;2.00;;;3.90;99.40;;;;;;5039706;28;20937;-70
2024/01/17 11:28:52;;;;;;;4.65;1.95;;;4.00;99.40;;;;;;5034749;28;20049;-69
2024/01/17 11:31:51;;;;;;;3.22;2.45;;;4.00;99.20;;;;;;5034317;28;20024;-72
2024/01/17 11:34:17;;;;;;;1.85;1.75;;;4.00;99.30;;;;;;5031280;28;20044;-71
2024/01/17 11:36:45;;;;;;;5.68;3.08;;;4.10;99.10;;;;;;5039966;28;20041;-70
2024/01/17 11:39:15;;;;;;;12.82;1.77;;;4.20;98.90;;;;;;5033674;28;20057;-71
2024/01/17 11:41:44;;;;;;;2.20;2.00;;;4.20;98.90;;;;;;5038442;28;20773;-70
2024/01/17 11:44:11;;;;;;;2.87;2.03;;;4.40;99.00;;;;;;5033518;28;20036;-70
2024/01/17 11:46:37;;;;;;;2.85;1.92;;;4.50;98.50;;;;;;5034683;28;20049;-72
2024/01/17 11:49:05;;;;;;;3.58;2.08;;;4.60;98.20;;;;;;5034072;28;20036;-70
2024/01/17 11:51:34;;;;;;;1.52;1.38;;;4.50;97.90;;;;;;5029221;28;20106;-72
2024/01/17 11:54:03;;;;;;;3.75;1.60;;;4.60;97.60;;;;;;5026356;28;20041;-72
2024/01/17 11:56:30;;;;;;;2.63;1.85;;;4.40;97.80;;;;;;5031403;28;20033;-73
2024/01/17 11:59:12;;;;;;;8.27;2.78;;;4.50;98.00;;;;;;5024074;28;20394;-72
2024/01/17 12:01:40;;;;;;;8.75;2.83;;;4.50;97.70;;;;;;5030768;28;20029;-68
2024/01/17 12:04:09;;;;;;;2.60;1.40;;;4.60;97.50;;;;;;5032097;28;20484;-71
2024/01/17 12:06:36;;;;;;;2.80;1.63;;;4.70;97.30;;;;;;5030023;28;20047;-72
2024/01/17 12:09:05;;;;;;;2.63;1.88;;;4.60;97.10;;;;;;5031717;28;20569;-71
2024/01/17 12:11:31;;;;;;;2.42;1.85;;;4.50;97.30;;;;;;5032802;28;20044;-70
2024/01/17 12:13:57;;;;;;;3.10;2.13;;;4.50;97.20;;;;;;5032229;28;20029;-72
2024/01/17 12:16:23;;;;;;;3.33;1.83;;;4.50;97.40;;;;;;5037905;28;20040;-71
2024/01/17 12:19:04;;;;;;;2.60;1.65;;;4.50;97.20;;;;;;5035311;28;20029;-68
2024/01/17 12:21:30;;;;;;;2.22;1.35;;;4.50;97.30;;;;;;5033904;28;20054;-69
2024/01/17 12:23:56;;;;;;;2.10;1.65;;;4.40;97.60;;;;;;5032994;28;20059;-70
2024/01/17 12:26:22;;;;;;;2.15;1.38;;;4.50;97.20;;;;;;5039396;28;20025;-71
2024/01/17 12:28:47;;;;;;;3.53;1.20;;;4.60;96.80;;;;;;5053038;28;20051;-69
2024/01/17 12:31:16;;;;;;;0.98;0.98;;;4.50;97.00;;;;;;5039271;28;20509;-68
2024/01/17 12:33:42;;;;;;;1.65;1.00;;;4.60;96.90;;;;;;5027445;28;20044;-71
2024/01/17 12:36:08;;;;;;;1.00;0.90;;;4.60;96.80;;;;;;5031176;28;20094;-68
2024/01/17 12:38:36;;;;;;;1.25;1.15;;;4.60;96.60;;;;;;5029954;28;20075;-69
2024/01/17 12:41:04;;;;;;;1.15;1.05;;;4.70;96.50;;;;;;5024292;28;20037;-69
2024/01/17 12:43:31;;;;;;;2.50;1.20;;;4.60;96.40;;;;;;5026477;28;20040;-70
2024/01/17 12:45:57;;;;;;;1.00;0.93;;;4.70;96.00;;;;;;5025652;28;20056;-72
2024/01/17 12:48:25;;;;;;;0.93;0.88;;;4.50;95.90;;;;;;5030549;28;20812;-70
2024/01/17 12:51:00;;;;;;;2.50;1.05;;;4.50;95.70;;;;;;5035218;28;20114;-69
2024/01/17 12:53:27;;;;;;;3.63;1.30;;;4.50;96.00;;;;;;5027126;28;20063;-70